sensor_id;sensor_type;location;lat;lon;timestamp;P1;durP1;ratioP1;P2;durP2;ratioP2
17650;SDS011;26663;59.302;18.082;2023-04-24T17:41:45;3.50;;;3.40;;
17650;SDS011;26663;59.302;18.082;2023-04-24T17:44:50;3.87;;;3.57;;
17650;SDS011;26663;59.302;18.082;2023-04-24T17:47:55;3.67;;;3.47;;
17650;SDS011;26663;59.302;18.082;2023-04-24T17:51:00;3.93;;;3.73;;
17650;SDS011;26663;59.302;18.082;2023-04-24T17:54:05;4.53;;;4.20;;
17650;SDS011;26663;59.302;18.082;2023-04-24T17:57:12;3.83;;;3.53;;
17650;SDS011;26663;59.302;18.082;2023-04-24T18:00:18;3.40;;;3.20;;
17650;SDS011;26663;59.302;18.082;2023-04-24T18:03:23;3.83;;;3.43;;
17650;SDS011;26663;59.302;18.082;2023-04-24T18:06:28;3.90;;;3.67;;
17650;SDS011;26663;59.302;18.082;2023-04-24T18:09:34;3.60;;;3.30;;
17650;SDS011;26663;59.302;18.082;2023-04-24T18:12:41;3.93;;;3.70;;
17650;SDS011;26663;59.302;18.082;2023-04-24T18:15:46;7.23;;;3.80;;
17650;SDS011;26663;59.302;18.082;2023-04-24T18:18:52;4.97;;;3.63;;
17650;SDS011;26663;59.302;18.082;2023-04-24T18:21:57;3.50;;;3.30;;
17650;SDS011;26663;59.302;18.082;2023-04-24T18:25:02;3.63;;;3.33;;
17650;SDS011;26663;59.302;18.082;2023-04-24T18:28:10;4.07;;;3.77;;
17650;SDS011;26663;59.302;18.082;2023-04-24T18:31:15;3.87;;;3.67;;
17650;SDS011;26663;59.302;18.082;2023-04-24T18:34:20;3.50;;;3.30;;
17650;SDS011;26663;59.302;18.082;2023-04-24T18:37:26;4.33;;;3.90;;
17650;SDS011;26663;59.302;18.082;2023-04-24T18:40:31;5.43;;;3.30;;
17650;SDS011;26663;59.302;18.082;2023-04-24T18:43:38;4.10;;;3.50;;
17650;SDS011;26663;59.302;18.082;2023-04-24T18:46:43;3.17;;;3.00;;
17650;SDS011;26663;59.302;18.082;2023-04-24T18:49:48;5.03;;;3.40;;
17650;SDS011;26663;59.302;18.082;2023-04-24T18:52:54;3.73;;;3.47;;
17650;SDS011;26663;59.302;18.082;2023-04-24T18:56:00;4.47;;;4.17;;
17650;SDS011;26663;59.302;18.082;2023-04-24T18:59:07;4.00;;;3.70;;
17650;SDS011;26663;59.302;18.082;2023-04-24T19:02:12;3.70;;;3.40;;
17650;SDS011;26663;59.302;18.082;2023-04-24T19:05:18;3.93;;;3.63;;
17650;SDS011;26663;59.302;18.082;2023-04-24T19:08:23;4.13;;;3.80;;
17650;SDS011;26663;59.302;18.082;2023-04-24T19:11:28;3.90;;;3.70;;
17650;SDS011;26663;59.302;18.082;2023-04-24T19:14:35;3.73;;;3.53;;
17650;SDS011;26663;59.302;18.082;2023-04-24T19:17:40;3.57;;;3.40;;
17650;SDS011;26663;59.302;18.082;2023-04-24T19:20:45;5.07;;;3.60;;
17650;SDS011;26663;59.302;18.082;2023-04-24T19:23:51;4.00;;;3.80;;
17650;SDS011;26663;59.302;18.082;2023-04-24T19:26:58;3.60;;;3.47;;
17650;SDS011;26663;59.302;18.082;2023-04-24T19:30:06;3.73;;;3.40;;
17650;SDS011;26663;59.302;18.082;2023-04-24T19:33:12;5.23;;;3.50;;
17650;SDS011;26663;59.302;18.082;2023-04-24T19:36:18;9.27;;;4.20;;
17650;SDS011;26663;59.302;18.082;2023-04-24T19:39:23;4.57;;;3.93;;
17650;SDS011;26663;59.302;18.082;2023-04-24T19:42:28;6.83;;;4.33;;
17650;SDS011;26663;59.302;18.082;2023-04-24T19:45:47;4.40;;;4.00;;
17650;SDS011;26663;59.302;18.082;2023-04-24T19:48:52;3.90;;;3.70;;
17650;SDS011;26663;59.302;18.082;2023-04-24T19:51:57;3.40;;;3.30;;
17650;SDS011;26663;59.302;18.082;2023-04-24T19:55:03;3.23;;;3.03;;
17650;SDS011;26663;59.302;18.082;2023-04-24T19:58:11;3.67;;;3.33;;
17650;SDS011;26663;59.302;18.082;2023-04-24T20:01:18;3.10;;;2.93;;
17650;SDS011;26663;59.302;18.082;2023-04-24T20:04:23;5.43;;;3.00;;
17650;SDS011;26663;59.302;18.082;2023-04-24T20:07:28;4.17;;;3.50;;
17650;SDS011;26663;59.302;18.082;2023-04-24T20:10:34;3.30;;;3.20;;
17650;SDS011;26663;59.302;18.082;2023-04-24T20:13:41;2.93;;;2.90;;
17650;SDS011;26663;59.302;18.082;2023-04-24T20:16:47;3.60;;;3.30;;
17650;SDS011;26663;59.302;18.082;2023-04-24T20:19:52;4.30;;;3.23;;
17650;SDS011;26663;59.302;18.082;2023-04-24T20:22:58;3.43;;;3.10;;
17650;SDS011;26663;59.302;18.082;2023-04-24T20:26:04;4.40;;;3.43;;
17650;SDS011;26663;59.302;18.082;2023-04-24T20:29:10;3.07;;;2.87;;
17650;SDS011;26663;59.302;18.082;2023-04-24T20:32:17;3.00;;;2.80;;
17650;SDS011;26663;59.302;18.082;2023-04-24T20:35:22;2.60;;;2.50;;
17650;SDS011;26663;59.302;18.082;2023-04-24T20:38:27;2.80;;;2.60;;
17650;SDS011;26663;59.302;18.082;2023-04-24T20:41:32;3.17;;;2.57;;
17650;SDS011;26663;59.302;18.082;2023-04-24T20:44:38;2.60;;;2.50;;
17650;SDS011;26663;59.302;18.082;2023-04-24T20:47:45;3.60;;;2.53;;
17650;SDS011;26663;59.302;18.082;2023-04-24T20:50:52;3.00;;;2.53;;
17650;SDS011;26663;59.302;18.082;2023-04-24T20:53:57;2.70;;;2.50;;
17650;SDS011;26663;59.302;18.082;2023-04-24T20:57:03;3.23;;;2.63;;
17650;SDS011;26663;59.302;18.082;2023-04-24T21:00:09;2.70;;;2.60;;
17650;SDS011;26663;59.302;18.082;2023-04-24T21:03:17;2.77;;;2.57;;
17650;SDS011;26663;59.302;18.082;2023-04-24T21:06:22;2.80;;;2.70;;
17650;SDS011;26663;59.302;18.082;2023-04-24T21:09:27;3.17;;;3.03;;
17650;SDS011;26663;59.302;18.082;2023-04-24T21:12:32;4.00;;;2.90;;
17650;SDS011;26663;59.302;18.082;2023-04-24T21:15:37;3.43;;;3.13;;
17650;SDS011;26663;59.302;18.082;2023-04-24T21:18:43;3.30;;;3.20;;
17650;SDS011;26663;59.302;18.082;2023-04-24T21:21:49;3.13;;;2.93;;
17650;SDS011;26663;59.302;18.082;2023-04-24T21:24:54;2.93;;;2.73;;
17650;SDS011;26663;59.302;18.082;2023-04-24T21:27:59;4.60;;;3.17;;
17650;SDS011;26663;59.302;18.082;2023-04-24T21:31:05;4.50;;;3.17;;
17650;SDS011;26663;59.302;18.082;2023-04-24T21:34:12;3.47;;;3.23;;
17650;SDS011;26663;59.302;18.082;2023-04-24T21:37:17;3.00;;;3.00;;
17650;SDS011;26663;59.302;18.082;2023-04-24T21:40:22;3.03;;;2.93;;
17650;SDS011;26663;59.302;18.082;2023-04-24T21:43:27;3.07;;;2.97;;
17650;SDS011;26663;59.302;18.082;2023-04-24T21:46:52;3.47;;;3.30;;
17650;SDS011;26663;59.302;18.082;2023-04-24T21:49:58;3.37;;;3.20;;
17650;SDS011;26663;59.302;18.082;2023-04-24T21:53:04;3.57;;;3.27;;
17650;SDS011;26663;59.302;18.082;2023-04-24T21:56:10;3.33;;;3.20;;
17650;SDS011;26663;59.302;18.082;2023-04-24T21:59:16;3.77;;;3.33;;
17650;SDS011;26663;59.302;18.082;2023-04-24T22:02:21;3.77;;;3.47;;
17650;SDS011;26663;59.302;18.082;2023-04-24T22:05:28;3.80;;;3.50;;
17650;SDS011;26663;59.302;18.082;2023-04-24T22:08:33;3.30;;;3.20;;
17650;SDS011;26663;59.302;18.082;2023-04-24T22:11:38;3.30;;;3.03;;
17650;SDS011;26663;59.302;18.082;2023-04-24T22:14:43;3.33;;;3.10;;
17650;SDS011;26663;59.302;18.082;2023-04-24T22:17:48;3.40;;;3.20;;
17650;SDS011;26663;59.302;18.082;2023-04-24T22:20:56;4.17;;;3.37;;
17650;SDS011;26663;59.302;18.082;2023-04-24T22:24:03;3.17;;;2.97;;
17650;SDS011;26663;59.302;18.082;2023-04-24T22:27:10;3.10;;;2.90;;
17650;SDS011;26663;59.302;18.082;2023-04-24T22:30:15;3.10;;;3.00;;
17650;SDS011;26663;59.302;18.082;2023-04-24T22:33:20;3.20;;;3.00;;
17650;SDS011;26663;59.302;18.082;2023-04-24T22:36:27;3.67;;;3.43;;
17650;SDS011;26663;59.302;18.082;2023-04-24T22:39:33;3.20;;;3.00;;
17650;SDS011;26663;59.302;18.082;2023-04-24T22:42:38;3.30;;;2.97;;
17650;SDS011;26663;59.302;18.082;2023-04-24T22:45:43;2.70;;;2.60;;
17650;SDS011;26663;59.302;18.082;2023-04-24T22:48:48;3.57;;;3.27;;
17650;SDS011;26663;59.302;18.082;2023-04-24T22:51:55;3.47;;;3.23;;
17650;SDS011;26663;59.302;18.082;2023-04-24T22:55:00;3.40;;;3.20;;
17650;SDS011;26663;59.302;18.082;2023-04-24T22:58:06;3.30;;;3.20;;
17650;SDS011;26663;59.302;18.082;2023-04-24T23:01:11;3.37;;;3.17;;
17650;SDS011;26663;59.302;18.082;2023-04-24T23:04:16;3.30;;;3.10;;
17650;SDS011;26663;59.302;18.082;2023-04-24T23:07:23;3.73;;;3.47;;
17650;SDS011;26663;59.302;18.082;2023-04-24T23:10:30;4.27;;;3.30;;
17650;SDS011;26663;59.302;18.082;2023-04-24T23:13:35;3.23;;;3.03;;
17650;SDS011;26663;59.302;18.082;2023-04-24T23:16:41;3.53;;;3.33;;
17650;SDS011;26663;59.302;18.082;2023-04-24T23:19:48;3.53;;;3.27;;
17650;SDS011;26663;59.302;18.082;2023-04-24T23:22:54;3.30;;;3.20;;
17650;SDS011;26663;59.302;18.082;2023-04-24T23:25:59;3.50;;;3.30;;
17650;SDS011;26663;59.302;18.082;2023-04-24T23:29:05;3.20;;;3.10;;
17650;SDS011;26663;59.302;18.082;2023-04-24T23:32:10;2.90;;;2.90;;
17650;SDS011;26663;59.302;18.082;2023-04-24T23:35:15;3.40;;;3.20;;
17650;SDS011;26663;59.302;18.082;2023-04-24T23:38:22;3.40;;;3.20;;
17650;SDS011;26663;59.302;18.082;2023-04-24T23:41:30;3.20;;;3.00;;
17650;SDS011;26663;59.302;18.082;2023-04-24T23:44:35;3.23;;;3.13;;
17650;SDS011;26663;59.302;18.082;2023-04-24T23:47:40;5.53;;;3.50;;
17650;SDS011;26663;59.302;18.082;2023-04-24T23:50:45;2.77;;;2.67;;
17650;SDS011;26663;59.302;18.082;2023-04-24T23:53:52;2.90;;;2.73;;
17650;SDS011;26663;59.302;18.082;2023-04-24T23:56:57;3.17;;;2.87;;
